CST,Max TemperatureF,Mean TemperatureF,Min TemperatureF,Max Dew PointF,MeanDew PointF,Min DewpointF,Max Humidity, Mean Humidity, Min Humidity, Max Sea Level PressureIn, Mean Sea Level PressureIn, Min Sea Level PressureIn, Max VisibilityMiles, Mean VisibilityMiles, Min VisibilityMiles, Max Wind SpeedMPH, Mean Wind SpeedMPH, Max Gust SpeedMPH,PrecipitationIn, CloudCover, Events, WindDirDegrees
2013-12-1,62,57,51,52,50,45,89,78,67,30.11,30.02,29.91,10,10,10,16,9,20,0.00,0,,212
2013-12-2,72,57,42,42,33,30,86,54,22,29.90,29.75,29.63,10,10,10,21,8,26,0.00,0,,222
2013-12-3,83,66,49,35,28,20,48,29,10,29.62,29.57,29.51,10,10,10,28,11,35,0.00,0,,238
2013-12-4,78,60,41,44,39,29,66,48,29,29.92,29.69,29.55,10,10,10,18,8,23,0.00,0,,14
2013-12-5,29,25,21,25,18,8,92,67,42,30.21,30.13,29.95,10,6,2,23,18,26,0.12,7,Rain-Snow,1
2013-12-6,25,22,18,18,16,12,91,80,68,30.55,30.29,30.14,10,6,1,20,15,23,0.09,7,Rain-Snow,355
2013-12-7,20,17,14,12,9,6,80,71,61,30.57,30.42,30.23,10,10,10,16,8,20,0.00,6,,10
2013-12-8,41,31,20,29,22,12,92,76,60,30.24,30.10,30.00,10,10,6,17,7,21,0.00,4,,185
2013-12-9,33,27,20,29,24,17,92,87,81,30.46,30.24,30.05,10,4,0,16,9,20,T,7,Fog-Rain-Snow,5
2013-12-10,42,28,14,32,21,11,92,67,41,30.51,30.40,30.27,10,8,6,15,7,17,0.00,0,,197
2013-12-11,42,35,28,27,25,22,85,70,54,30.61,30.43,30.24,10,10,10,20,9,23,0.00,0,,336
2013-12-12,44,33,21,30,26,19,92,71,49,30.60,30.46,30.23,10,9,5,13,5,15,0.00,0,,207
2013-12-13,61,52,42,42,37,30,70,61,51,30.21,29.94,29.76,10,10,10,24,12,31,T,5,Rain,198
2013-12-14,50,40,29,34,25,22,72,52,32,30.38,30.18,29.85,10,10,10,28,14,32,0.00,1,,337
2013-12-15,61,45,29,29,25,22,75,49,23,30.35,30.28,30.21,10,10,10,16,7,20,0.00,0,,194
2013-12-16,69,54,39,30,27,25,59,39,18,30.22,30.17,30.11,10,10,10,14,8,20,0.00,0,,205
2013-12-17,71,56,41,32,30,26,58,39,20,30.29,30.23,30.17,10,10,10,9,5,23,0.00,0,,158
2013-12-18,70,55,40,46,38,30,70,51,31,30.22,30.08,29.90,10,10,7,23,12,30,0.00,0,,183
2013-12-19,71,62,53,51,49,46,83,65,47,29.87,29.75,29.68,10,10,10,35,18,45,0.00,0,,185
2013-12-20,60,46,31,51,36,26,92,81,70,29.92,29.82,29.69,10,8,2,26,10,29,0.25,6,Rain,356
2013-12-21,60,47,33,48,41,32,100,70,39,29.81,29.65,29.54,10,8,1,28,11,35,0.66,6,Rain,293
2013-12-22,44,36,28,34,26,23,100,73,45,30.38,30.14,29.86,10,9,0,21,10,26,T,3,Fog,358
2013-12-23,54,40,25,33,28,22,89,65,41,30.50,30.44,30.36,10,10,9,13,6,16,0.00,0,,178
2013-12-24,60,43,25,34,28,23,92,64,36,30.49,30.33,30.13,10,7,0,25,11,31,0.00,1,Fog,180
2013-12-25,48,39,30,33,30,25,89,69,49,30.45,30.33,30.14,10,10,8,23,9,25,0.00,2,,347
2013-12-26,55,40,24,32,24,16,92,57,22,30.46,30.39,30.32,10,10,9,10,2,18,0.00,0,,137
2013-12-27,58,41,24,33,25,20,81,53,25,30.45,30.37,30.30,10,10,10,10,3,13,0.00,0,,158
2013-12-28,54,46,37,44,40,33,89,78,66,30.28,30.08,29.91,10,10,7,21,9,26,0.00,5,,194
2013-12-29,48,37,25,43,30,19,92,81,69,30.34,30.14,29.88,10,8,2,26,14,35,T,7,Rain-Snow,338
2013-12-30,51,36,20,40,23,16,91,64,36,30.41,30.31,30.22,10,10,10,10,3,12,0.00,0,,161
2013-12-31,57,40,23,30,26,19,88,62,35,30.41,30.29,30.11,10,10,9,18,9,24,0.00,0,,180